Flight Briefing for CMB821

Departure Arrival
Patrick Air Force Base (KCOF)
Click to view FAA NOTAMS
Joint Base McGuire Dix Lakehurst (KWRI)
Click to view FAA NOTAMS
Departure Time Arrival Time
N/A N/A
Aircraft Distance
B757-200SF 768nm
Departure METAR Arrival METAR
KCOF 271056Z AUTO 21005KT 10SM CLR 24/24 A3008 RMK AO2 SLP191 T02370237 $ KWRI 271056Z AUTO 36004KT 10SM CLR 20/13 A2990 RMK AO2 SLP124 T02020134 $
Suggested Route
APOLO ETECK AR18 DIW J174 SWL J121 SIE V44 PANZE V184 ZIGGI


View recent IFR Routes data
Notes
USTRANSCOM CONTRACT FLIGHT

Charts and Procedures

Charts for KCOF
No chart available
Charts for KWRI
No chart available

Windy.com Weather Map